createdAt,value
2019-03-21T00:01:03.259Z,14.28
2019-03-21T00:06:09.433Z,15.95
2019-03-21T00:11:49.131Z,14.85
2019-03-21T00:16:52.669Z,14.23
2019-03-21T00:21:56.168Z,12.45
2019-03-21T00:27:00.034Z,14.07
2019-03-21T00:32:03.660Z,11.88
2019-03-21T00:37:07.131Z,14.05
2019-03-21T00:42:10.615Z,13.15
2019-03-21T00:47:14.172Z,15.03
2019-03-21T00:52:17.644Z,12.88
2019-03-21T00:57:21.121Z,13.95
2019-03-21T01:02:24.584Z,15.70
2019-03-21T01:07:28.060Z,14.43
2019-03-21T01:12:31.589Z,13.98
2019-03-21T01:17:35.063Z,14.65
2019-03-21T01:22:38.585Z,14.50
2019-03-21T01:27:42.142Z,13.88
2019-03-21T01:32:46.216Z,13.98
2019-03-21T01:37:49.678Z,13.10
2019-03-21T01:42:53.162Z,14.30
2019-03-21T01:47:56.735Z,14.60
2019-03-21T01:53:00.201Z,14.78
2019-03-21T01:58:03.757Z,15.88
2019-03-21T02:03:07.597Z,14.13
2019-03-21T02:08:11.069Z,15.23
2019-03-21T02:13:14.583Z,16.17
2019-03-21T02:18:18.066Z,17.85
2019-03-21T02:23:21.610Z,16.57
2019-03-21T02:28:25.175Z,15.90
2019-03-21T02:33:31.394Z,17.02
2019-03-21T02:38:34.943Z,19.70
2019-03-21T02:43:38.762Z,15.93
2019-03-21T02:48:42.238Z,15.63
2019-03-21T02:53:45.796Z,16.77
2019-03-21T02:58:49.414Z,17.00
2019-03-21T03:03:53.059Z,17.62
2019-03-21T03:08:56.602Z,20.12
2019-03-21T03:14:00.081Z,17.20
2019-03-21T03:19:03.581Z,15.63
2019-03-21T03:24:07.084Z,18.80
2019-03-21T03:29:10.641Z,18.27
2019-03-21T03:34:14.213Z,17.98
2019-03-21T03:39:17.694Z,17.87
2019-03-21T03:44:21.248Z,18.52
2019-03-21T03:49:24.819Z,19.55
2019-03-21T03:54:28.488Z,18.70
2019-03-21T03:59:31.964Z,18.10
2019-03-21T04:04:35.482Z,18.02
2019-03-21T04:09:39.129Z,19.40
2019-03-21T04:14:42.605Z,19.05
2019-03-21T04:19:46.128Z,19.37
2019-03-21T04:24:49.664Z,17.75
2019-03-21T04:29:53.134Z,19.27
2019-03-21T04:34:56.614Z,19.37
2019-03-21T04:40:00.099Z,18.30
2019-03-21T04:45:05.799Z,17.73
2019-03-21T04:50:15.148Z,18.67
2019-03-21T04:55:18.630Z,19.82
2019-03-21T05:00:25.225Z,20.57
2019-03-21T05:05:28.730Z,20.97
2019-03-21T05:10:32.316Z,22.65
2019-03-21T05:15:41.210Z,21.27
2019-03-21T05:20:44.789Z,20.12
2019-03-21T05:25:48.265Z,20.27
2019-03-21T05:30:57.685Z,21.93
2019-03-21T05:36:01.172Z,19.15
2019-03-21T05:41:05.754Z,20.82
2019-03-21T05:46:09.230Z,21.30
2019-03-21T05:51:12.734Z,18.20
2019-03-21T05:56:16.209Z,18.17
2019-03-21T06:01:19.729Z,21.35
2019-03-21T06:06:41.543Z,17.92
2019-03-21T06:11:48.437Z,18.10
2019-03-21T06:16:51.978Z,16.52
2019-03-21T06:22:04.271Z,15.80
2019-03-21T06:27:27.860Z,16.45
2019-03-21T06:32:31.341Z,16.52
2019-03-21T06:37:34.897Z,14.13
2019-03-21T06:42:39.093Z,16.48
2019-03-21T06:47:43.047Z,15.85
2019-03-21T06:52:46.685Z,14.95
2019-03-21T06:57:50.171Z,13.25
2019-03-21T07:02:53.672Z,14.03
2019-03-21T07:07:57.144Z,17.45
2019-03-21T07:13:00.679Z,12.98
2019-03-21T07:18:04.170Z,12.90
2019-03-21T07:23:07.652Z,13.55
2019-03-21T07:28:11.154Z,12.55
2019-03-21T07:33:14.623Z,14.10
2019-03-21T07:38:18.123Z,158.18
2019-03-21T07:43:22.407Z,100.85
2019-03-21T07:48:26.138Z,67.55
2019-03-21T07:53:30.207Z,54.30
2019-03-21T07:58:33.713Z,39.92
2019-03-21T08:03:37.229Z,35.78
2019-03-21T08:08:40.695Z,26.82
2019-03-21T08:13:44.187Z,25.95
2019-03-21T08:18:47.701Z,23.00
2019-03-21T08:23:51.203Z,21.73
2019-03-21T08:28:54.673Z,20.32
2019-03-21T08:33:58.174Z,20.82
2019-03-21T08:39:01.679Z,17.25
2019-03-21T08:44:05.659Z,15.70
2019-03-21T08:49:09.169Z,16.57
2019-03-21T08:54:12.670Z,15.00
2019-03-21T08:59:16.248Z,14.28
2019-03-21T09:04:19.738Z,15.28
2019-03-21T09:09:23.194Z,13.00
2019-03-21T09:14:26.735Z,14.83
2019-03-21T09:19:30.395Z,12.85
2019-03-21T09:24:33.902Z,12.07
2019-03-21T09:29:37.411Z,13.43
2019-03-21T09:34:40.866Z,10.75
2019-03-21T09:39:44.340Z,10.98
2019-03-21T09:44:47.935Z,12.75
2019-03-21T09:49:51.503Z,11.40
2019-03-21T09:54:54.962Z,10.15
2019-03-21T09:59:58.458Z,9.88
2019-03-21T10:05:02.018Z,8.88
2019-03-21T10:10:06.714Z,8.85
2019-03-21T10:15:10.239Z,9.38
2019-03-21T10:20:13.737Z,11.35
2019-03-21T10:25:17.299Z,11.22
2019-03-21T10:30:40.744Z,13.25
2019-03-21T10:35:44.266Z,11.22
2019-03-21T10:40:47.834Z,9.78
2019-03-21T10:45:51.884Z,11.60
2019-03-21T10:50:55.422Z,11.75
2019-03-21T10:55:59.021Z,9.93
2019-03-21T11:01:02.491Z,10.05
2019-03-21T11:06:06.035Z,10.75
2019-03-21T11:11:09.543Z,9.18
2019-03-21T11:16:13.018Z,7.95
2019-03-21T11:21:16.506Z,10.00
2019-03-21T11:26:19.995Z,9.28
2019-03-21T11:31:23.500Z,9.03
2019-03-21T11:36:37.816Z,8.23
2019-03-21T11:41:32.304Z,7.47
2019-03-21T11:46:35.854Z,9.50
2019-03-21T11:51:39.416Z,8.10
2019-03-21T11:56:43.004Z,7.50
2019-03-21T12:01:46.553Z,7.47
2019-03-21T12:06:50.188Z,6.15
2019-03-21T12:11:53.907Z,6.72
2019-03-21T12:16:57.385Z,7.65
2019-03-21T12:22:00.979Z,6.95
2019-03-21T12:27:04.514Z,7.90
2019-03-21T12:32:07.979Z,7.45
2019-03-21T12:37:11.500Z,6.90
2019-03-21T12:42:15.042Z,7.78
2019-03-21T12:47:18.549Z,7.33
2019-03-21T12:52:22.007Z,7.00
2019-03-21T12:57:25.557Z,7.85
2019-03-21T13:02:32.286Z,6.28
2019-03-21T13:07:34.266Z,6.67
2019-03-21T13:12:37.807Z,6.67
2019-03-21T13:17:41.364Z,7.30
2019-03-21T13:22:52.798Z,6.20
2019-03-21T13:27:50.087Z,5.90
2019-03-21T13:32:53.643Z,6.97
2019-03-21T13:37:57.219Z,6.15
2019-03-21T13:43:00.721Z,7.72
2019-03-21T13:48:04.622Z,7.15
2019-03-21T13:53:18.181Z,5.87
2019-03-21T13:58:13.284Z,6.70
2019-03-21T14:03:25.020Z,6.30
2019-03-21T14:08:22.103Z,7.42
2019-03-21T14:13:25.743Z,7.58
2019-03-21T14:18:29.716Z,5.17
2019-03-21T14:23:42.833Z,7.47
2019-03-21T14:28:38.435Z,6.03
2019-03-21T14:33:43.526Z,7.00
2019-03-21T14:38:47.110Z,5.42
2019-03-21T14:43:50.683Z,7.55
2019-03-21T14:48:54.160Z,5.87
2019-03-21T14:53:57.708Z,6.67
2019-03-21T14:59:01.258Z,6.33
2019-03-21T15:04:05.191Z,6.50
2019-03-21T15:09:09.069Z,6.47
2019-03-21T15:14:12.650Z,7.08
2019-03-21T15:19:16.122Z,7.35
2019-03-21T15:24:19.606Z,5.28
2019-03-21T15:29:23.133Z,6.22
2019-03-21T15:34:26.615Z,7.17
2019-03-21T15:39:30.196Z,7.83
2019-03-21T15:44:33.758Z,7.17
2019-03-21T15:49:37.219Z,7.00
2019-03-21T15:54:40.741Z,9.03
2019-03-21T15:59:44.223Z,8.30
2019-03-21T16:04:47.693Z,6.22
2019-03-21T16:09:51.154Z,8.18
2019-03-21T16:14:54.618Z,7.97
2019-03-21T16:19:58.094Z,7.40
2019-03-21T16:25:01.571Z,6.40
2019-03-21T16:30:11.276Z,9.23
2019-03-21T16:35:15.265Z,6.67
2019-03-21T16:40:18.943Z,9.95
2019-03-21T16:45:22.413Z,10.70
2019-03-21T16:50:25.891Z,12.70
2019-03-21T16:55:29.426Z,11.93
2019-03-21T17:00:32.929Z,11.60
2019-03-21T17:05:36.432Z,12.07
2019-03-21T17:10:39.951Z,10.03
2019-03-21T17:15:43.448Z,17.48
2019-03-21T17:20:47.006Z,16.65
2019-03-21T17:25:50.574Z,14.83
2019-03-21T17:30:54.142Z,12.70
2019-03-21T17:35:57.672Z,15.10
2019-03-21T17:41:01.190Z,14.05
2019-03-21T17:46:04.912Z,17.73
2019-03-21T17:51:08.387Z,18.90
2019-03-21T17:56:12.419Z,18.32
2019-03-21T18:01:15.964Z,20.17
2019-03-21T18:06:19.468Z,19.05
2019-03-21T18:11:22.961Z,16.97
2019-03-21T18:16:26.759Z,17.37
2019-03-21T18:21:30.436Z,18.75
2019-03-21T18:26:33.938Z,19.75
2019-03-21T18:31:37.459Z,19.17
2019-03-21T18:36:41.005Z,21.50
2019-03-21T18:41:44.646Z,19.00
2019-03-21T18:46:48.131Z,25.92
2019-03-21T18:51:51.678Z,22.05
2019-03-21T18:56:55.142Z,23.75
2019-03-21T19:01:59.083Z,22.20
2019-03-21T19:07:02.868Z,22.27
2019-03-21T19:12:06.964Z,21.42
2019-03-21T19:17:11.096Z,22.07
2019-03-21T19:22:14.871Z,22.07
2019-03-21T19:27:18.766Z,20.72
2019-03-21T19:32:22.239Z,20.95
2019-03-21T19:37:25.720Z,21.30
2019-03-21T19:42:29.266Z,19.37
2019-03-21T19:47:32.774Z,20.35
2019-03-21T19:52:36.330Z,20.37
2019-03-21T19:57:39.875Z,21.97
2019-03-21T20:02:43.522Z,20.50
2019-03-21T20:07:47.278Z,20.82
2019-03-21T20:12:50.865Z,23.95
2019-03-21T20:17:54.354Z,22.20
2019-03-21T20:22:57.850Z,20.23
2019-03-21T20:28:01.405Z,22.02
2019-03-21T20:33:05.038Z,22.55
2019-03-21T20:38:08.539Z,22.77
2019-03-21T20:43:12.589Z,21.42
2019-03-21T20:48:16.077Z,21.20
2019-03-21T20:53:19.880Z,19.85
2019-03-21T20:58:23.623Z,21.75
2019-03-21T21:03:27.152Z,21.70
2019-03-21T21:08:30.626Z,21.10
2019-03-21T21:13:34.102Z,21.27
2019-03-21T21:18:37.598Z,22.00
2019-03-21T21:23:41.180Z,22.22
2019-03-21T21:28:44.740Z,24.02
2019-03-21T21:33:48.213Z,21.82
2019-03-21T21:38:51.771Z,24.85
2019-03-21T21:43:58.494Z,25.15
2019-03-21T21:49:02.934Z,22.30
2019-03-21T21:54:06.403Z,23.85
2019-03-21T21:59:09.870Z,25.48
2019-03-21T22:04:13.369Z,24.82
2019-03-21T22:09:16.930Z,26.25
2019-03-21T22:14:20.570Z,26.17
2019-03-21T22:19:24.108Z,26.12
2019-03-21T22:24:27.610Z,24.90
2019-03-21T22:29:31.205Z,23.75
2019-03-21T22:34:34.761Z,24.32
2019-03-21T22:39:38.326Z,22.50
2019-03-21T22:44:41.856Z,22.60
2019-03-21T22:49:45.437Z,24.90
2019-03-21T22:54:48.952Z,22.10
2019-03-21T22:59:52.527Z,24.65
2019-03-21T23:04:56.105Z,22.87
2019-03-21T23:09:59.790Z,23.00
2019-03-21T23:15:03.670Z,21.87
2019-03-21T23:20:09.609Z,21.68
2019-03-21T23:25:16.510Z,19.87
2019-03-21T23:30:20.023Z,21.62
2019-03-21T23:35:23.556Z,21.68
2019-03-21T23:40:27.119Z,20.12
2019-03-21T23:45:30.720Z,19.75
2019-03-21T23:50:34.244Z,20.52
2019-03-21T23:55:37.748Z,20.52
